»·PEaware :: SWA184 KLAS-KGEG

SWA184 :: KLAS-KGEG

FLIGHT INFORMATION

Flight Status: Arrived
Operator:
Southwest Airlines
More flights by this operator :: More flights under this callsign
Pilot: Drew L. (13237)
Aircraft: BOEING 737-800
(B738)
More flights by this aircraft type
Origin: KLAS McCarran Intl
United States
Destination: KGEG Spokane Intl
United States
More flights between these airports :: More routes between these airports
Route: +BOI J517 GEG
File this flight plan on PilotEdge
Remarks: PBN / A1B1C1D1S1S2 DOF / 180507 REG / N806SB EET / KZLC0023 KZSE0139 OPR / SWA PER / C RMK / TCAS SIMBRIEF
Altitude:
(Current/Filed)
36,000ft
Speed:
(Current/Filed)
462kts
Departed: 07-May-18 04:07 PM
Arrived: 07-May-18 06:11 PM
Distance/Time
Traveled:
701nm/2:04
Distance/Time
To Go:
Arrived

Flight Plot

Page will automatically refresh every two minutes.

Flight plan parsing failed; only flown route is shown


Map Options




Map Legend


Flown Route
Filed Route
Departure Airport
Arrival Airport
Navaid (VOR, NDB)
Fix

Horizontal Profiles

Position Reports

Time Latitude Longitude Heading Altitude Ground
Speed
07-May-18 15:37 36.079629 -115.146757 29 2188ft 0kts
07-May-18 15:38 36.079629 -115.146757 29 2188ft 0kts
07-May-18 15:39 36.079629 -115.146757 29 2188ft 0kts
07-May-18 15:40 36.079629 -115.146757 29 2188ft 0kts
07-May-18 15:41 36.079629 -115.146757 29 2188ft 0kts
07-May-18 15:42 36.079629 -115.146757 29 2188ft 0kts
07-May-18 15:43 36.079629 -115.146757 29 2188ft 0kts
07-May-18 15:44 36.079629 -115.146757 29 2188ft 0kts
07-May-18 15:45 36.079629 -115.146757 29 2188ft 0kts
07-May-18 15:46 36.079629 -115.146757 29 2188ft 0kts
07-May-18 15:47 36.079629 -115.146757 29 2188ft 0kts
07-May-18 15:48 36.079629 -115.146757 29 2188ft 0kts
07-May-18 15:49 36.079629 -115.146757 29 2188ft 0kts
07-May-18 15:50 36.079629 -115.146757 29 2188ft 0kts
07-May-18 15:51 36.079629 -115.146757 29 2188ft 0kts
07-May-18 15:52 36.079629 -115.146757 29 2188ft 0kts
07-May-18 15:53 36.079329 -115.146979 42 2188ft 2kts
07-May-18 15:54 36.079095 -115.147634 92 2188ft 2kts
07-May-18 15:55 36.079348 -115.148275 142 2189ft 2kts
07-May-18 15:56 36.079544 -115.148410 157 2188ft 0kts
07-May-18 15:57 36.079544 -115.148410 157 2188ft 0kts
07-May-18 15:58 36.079544 -115.148410 157 2188ft 0kts
07-May-18 15:59 36.078778 -115.148107 150 2188ft 13kts
07-May-18 16:00 36.078272 -115.139893 89 2188ft 31kts
07-May-18 16:01 36.078279 -115.129399 90 2188ft 29kts
07-May-18 16:02 36.077512 -115.121544 133 2189ft 0kts
07-May-18 16:03 36.077512 -115.121544 133 2189ft 0kts
07-May-18 16:04 36.077512 -115.121544 133 2189ft 0kts
07-May-18 16:05 36.077512 -115.121544 133 2189ft 0kts
07-May-18 16:06 36.076436 -115.121589 268 2189ft 11kts
07-May-18 16:07 36.076859 -115.161966 268 2756ft 188kts
07-May-18 16:08 36.076955 -115.230808 267 5256ft 211kts
07-May-18 16:09 36.104406 -115.290705 342 7534ft 244kts
07-May-18 16:10 36.169521 -115.272080 47 9861ft 267kts
07-May-18 16:11 36.200820 -115.181570 76 11392ft 320kts
07-May-18 16:12 36.200157 -115.066896 92 13647ft 345kts
07-May-18 16:13 36.200273 -114.945495 91 16229ft 361kts
07-May-18 16:14 36.202913 -114.818804 78 18410ft 379kts
07-May-18 16:15 36.268839 -114.716494 37 18993ft 397kts
07-May-18 16:16 36.355092 -114.633873 36 20442ft 393kts
07-May-18 16:17 36.442921 -114.550581 36 22323ft 403kts
07-May-18 16:18 36.532651 -114.465413 35 23971ft 413kts
07-May-18 16:19 36.629569 -114.387254 29 25451ft 420kts
07-May-18 16:20 36.729423 -114.310629 29 26760ft 427kts
07-May-18 16:21 36.829915 -114.232963 29 27926ft 434kts
07-May-18 16:22 36.932827 -114.153004 29 28979ft 440kts
07-May-18 16:23 37.036495 -114.072063 28 30243ft 436kts
07-May-18 16:24 37.137615 -113.992781 28 31550ft 427kts
07-May-18 16:25 37.237465 -113.914262 28 32484ft 423kts
07-May-18 16:26 37.336293 -113.836272 27 33284ft 420kts
07-May-18 16:27 37.434815 -113.758279 27 33983ft 417kts
07-May-18 16:27 37.515948 -113.693849 27 34453ft 416kts
07-May-18 16:28 37.613228 -113.616359 27 34968ft 414kts
07-May-18 16:29 37.710549 -113.538609 27 35213ft 414kts
07-May-18 16:30 37.814667 -113.507435 341 35247ft 389kts
07-May-18 16:31 37.916604 -113.549793 337 35219ft 386kts
07-May-18 16:32 38.018158 -113.593483 337 35221ft 387kts
07-May-18 16:33 38.119528 -113.637202 337 35213ft 387kts
07-May-18 16:34 38.221041 -113.681123 337 35176ft 387kts
07-May-18 16:36 38.339935 -113.732723 337 35165ft 388kts
07-May-18 16:36 38.424463 -113.769499 337 35167ft 387kts
07-May-18 16:37 38.526356 -113.813947 337 35168ft 387kts
07-May-18 16:38 38.627982 -113.858419 337 35176ft 387kts
07-May-18 16:39 38.729874 -113.903151 337 35202ft 387kts
07-May-18 16:40 38.831265 -113.947788 337 35218ft 386kts
07-May-18 16:41 38.932861 -113.992644 337 35539ft 387kts
07-May-18 16:42 39.034402 -114.037591 336 36250ft 395kts
07-May-18 16:43 39.138347 -114.083860 336 36246ft 419kts
07-May-18 16:44 39.247682 -114.132564 336 36234ft 417kts
07-May-18 16:45 39.356939 -114.181405 336 36234ft 418kts
07-May-18 16:47 39.466470 -114.230508 336 36236ft 417kts
07-May-18 16:48 39.575497 -114.279548 336 36236ft 417kts
07-May-18 16:49 39.684878 -114.328887 337 36233ft 416kts
07-May-18 16:50 39.794478 -114.378516 336 36232ft 418kts
07-May-18 16:51 39.903507 -114.428026 336 36229ft 416kts
07-May-18 16:52 40.012842 -114.477826 336 36229ft 417kts
07-May-18 16:53 40.121560 -114.527535 337 36186ft 417kts
07-May-18 16:54 40.231118 -114.577768 337 36171ft 417kts
07-May-18 16:55 40.340113 -114.627935 336 36153ft 417kts
07-May-18 16:56 40.449045 -114.678279 336 36159ft 417kts
07-May-18 16:57 40.558208 -114.729011 336 36157ft 417kts
07-May-18 16:58 40.667029 -114.779740 336 36171ft 417kts
07-May-18 16:59 40.775943 -114.830644 336 36186ft 416kts
07-May-18 17:00 40.884759 -114.881701 336 36203ft 417kts
07-May-18 17:01 40.989198 -114.930842 336 36215ft 417kts
07-May-18 17:02 41.098077 -114.982186 335 36226ft 415kts
07-May-18 17:03 41.204270 -115.032464 334 36230ft 411kts
07-May-18 17:04 41.311484 -115.083418 334 36228ft 409kts
07-May-18 17:05 41.418001 -115.134206 335 36227ft 407kts
07-May-18 17:06 41.523824 -115.184835 335 36228ft 405kts
07-May-18 17:07 41.629131 -115.235382 335 36225ft 403kts
07-May-18 17:08 41.734680 -115.286211 335 36218ft 404kts
07-May-18 17:09 41.839135 -115.336678 335 36218ft 403kts
07-May-18 17:10 41.944480 -115.387758 335 36212ft 404kts
07-May-18 17:11 42.049537 -115.438871 335 36214ft 404kts
07-May-18 17:12 42.153858 -115.489800 335 36195ft 404kts
07-May-18 17:13 42.258553 -115.541108 335 36165ft 404kts
07-May-18 17:14 42.363406 -115.592636 335 36141ft 401kts
07-May-18 17:15 42.466772 -115.643606 334 36151ft 398kts
07-May-18 17:16 42.570060 -115.694915 334 36156ft 396kts
07-May-18 17:17 42.673046 -115.746318 334 36157ft 396kts
07-May-18 17:18 42.776161 -115.797933 334 36156ft 397kts
07-May-18 17:19 42.879203 -115.849646 334 36154ft 395kts
07-May-18 17:20 42.982714 -115.901828 334 36151ft 402kts
07-May-18 17:21 43.088121 -115.955112 334 36153ft 405kts
07-May-18 17:22 43.192085 -116.007806 334 36157ft 405kts
07-May-18 17:23 43.293751 -116.059512 334 36165ft 404kts
07-May-18 17:24 43.398348 -116.112899 334 36175ft 405kts
07-May-18 17:25 43.503551 -116.166799 334 36182ft 405kts
07-May-18 17:26 43.611316 -116.213486 340 36175ft 409kts
07-May-18 17:27 43.719501 -116.249628 340 36172ft 410kts
07-May-18 17:28 43.829642 -116.287549 340 36170ft 409kts
07-May-18 17:29 43.939137 -116.326323 340 36168ft 409kts
07-May-18 17:30 44.048989 -116.365583 340 36167ft 409kts
07-May-18 17:31 44.158811 -116.404910 340 36171ft 409kts
07-May-18 17:32 44.268526 -116.444211 340 36211ft 408kts
07-May-18 17:33 44.376547 -116.482920 340 36227ft 410kts
07-May-18 17:34 44.486456 -116.522294 340 36211ft 409kts
07-May-18 17:35 44.596423 -116.561694 340 36229ft 409kts
07-May-18 17:36 44.706266 -116.601049 340 36249ft 408kts
07-May-18 17:37 44.815702 -116.640261 340 36248ft 409kts
07-May-18 17:38 44.924679 -116.679403 339 36254ft 408kts
07-May-18 17:39 45.034669 -116.718903 340 36255ft 412kts
07-May-18 17:40 45.145072 -116.758481 341 36260ft 415kts
07-May-18 17:41 45.255919 -116.798173 341 36259ft 415kts
07-May-18 17:42 45.368034 -116.838366 341 35740ft 422kts
07-May-18 17:43 45.479828 -116.878374 341 34548ft 415kts
07-May-18 17:44 45.591700 -116.918487 341 33378ft 420kts
07-May-18 17:45 45.705535 -116.959272 341 32189ft 425kts
07-May-18 17:46 45.820589 -117.000500 341 30998ft 430kts
07-May-18 17:47 45.936937 -117.042182 341 29802ft 435kts
07-May-18 17:48 46.054186 -117.084191 341 28603ft 440kts
07-May-18 17:49 46.171114 -117.126083 341 27430ft 444kts
07-May-18 17:50 46.291305 -117.169154 342 26115ft 448kts
07-May-18 17:51 46.405481 -117.209953 342 24144ft 409kts
07-May-18 17:52 46.513536 -117.248747 342 22145ft 399kts
07-May-18 17:53 46.619684 -117.286834 342 20134ft 389kts
07-May-18 17:54 46.723272 -117.323994 343 18121ft 380kts
07-May-18 17:55 46.824558 -117.360324 343 16107ft 371kts
07-May-18 17:56 46.922915 -117.395614 344 14105ft 364kts
07-May-18 17:57 47.019057 -117.430125 345 12501ft 360kts
07-May-18 17:58 47.112406 -117.463611 345 12245ft 359kts
07-May-18 17:59 47.205975 -117.497126 345 12228ft 323kts
07-May-18 18:00 47.283888 -117.525020 345 12264ft 270kts
07-May-18 18:01 47.354526 -117.550396 345 12256ft 266kts
07-May-18 18:02 47.426353 -117.541176 14 10871ft 268kts
07-May-18 18:03 47.494826 -117.515327 14 9408ft 259kts
07-May-18 18:04 47.553351 -117.480874 42 8070ft 254kts
07-May-18 18:05 47.603444 -117.409631 44 6610ft 243kts
07-May-18 18:06 47.650851 -117.340363 44 4707ft 237kts
07-May-18 18:07 47.697166 -117.359312 285 4244ft 235kts
07-May-18 18:08 47.682558 -117.443692 229 3748ft 182kts
07-May-18 18:09 47.650717 -117.489298 225 2956ft 149kts
07-May-18 18:10 47.622172 -117.531873 225 2383ft 87kts
07-May-18 18:11 47.618207 -117.540861 281 2383ft 0kts
07-May-18 18:12 47.621692 -117.537067 353 2383ft 22kts
07-May-18 18:13 47.623901 -117.535881 354 2382ft 0kts

Navigation Log

Ident Type
Flight plan parsing failed, navigation log unavailable